Aeroporto :
LOGIN :

Iscrizione | Disclaimer

   EN    FR    IT 

 










Sommario :    VFR   VFR Marginale   IFR   IFR Intensivo   IFR Molto Intensivo
Visibilità : 
Base nubi : 
>= 8 km
>= 3000ft
5 / 8 km
1000 / 3000 ft
1500m / 5 km
500 / 1000 ft
800 / 1500m
200 / 500 ft
< 800m
< 200 ft
Simboli :   Temporali  Nebbia  Neve Forte  Precipitazioni Forti  Vento > 20 kt
SIGMETs :   Varie  Temporali  Ghiacco  Turbolenza  Onda orograficha  Ceneri Vulcaniche







- Altitudine del aeroporto : 359 ft
- Codice IATA : BVA
- Carte del aeroporto


LFOB - Beauvais

ULTIMO METAR :
  • 191400Z AUTO 01008KT 340V040 9999 FEW024/// BKN032/// BKN044/// ///CB 17/12 Q1007 TEMPO 2000 SHRA BR BKN005 BKN020CB

METARs OBSOLETI :
  • 191330Z AUTO 01009KT 350V050 9999 SCT021/// BKN026/// BKN031/// ///CB 16/12 Q1007 TEMPO 2000 SHRA BR BKN005 BKN020CB
  • 191300Z AUTO 02007KT 350V050 9000 SCT016/// BKN022/// BKN028/// ///CB 16/12 Q1007 TEMPO 2000 SHRA BR BKN005 BKN020CB
  • 191230Z AUTO 02011KT 5000 BR OVC018/// ///CB 15/12 Q1007 TEMPO 2000 SHRA BR BKN005 BKN020CB
  • 191200Z AUTO 02008KT 4500 BR BKN018/// BKN025/// BKN030/// ///CB 16/12 Q1007 TEMPO 2000 SHRA BR BKN005 BKN020CB
  • 191130Z AUTO 02010KT 3500 BR FEW017 OVC028 16/12 Q1007 TEMPO SHRA BKN009 BKN030CB

TAF TAF LFOB
Valido dal 19 a 12 ore il 20 a 12 ore UTC


191100Z 1912/2012 36010KT 9999 SCT013 BKN020
TEMPO 1912/1918 2000 SHRA BR BKN005 BKN020CB
PROB40 1912/1918 TSRA
BECMG 2003/2006 3000 BR OVC003
BECMG 2008/2011 8000 NSW BKN030
ATIS : +33 3 44 11 49 28
Nessun NOTAM noto per questo aeroporto.
1 SIGMET conosciuto per la FIR Paris (LFFF) :
 
Temporali affogati
LFFF SIGMET 4 VALID 191400/191600 LFPW
LFFF PARIS FIR/UIR EMBD TS OBS WI N4830 E00430 - N4815 E00400 - N4815 E00300 - N4830 E00200 - N4845 E00215 - N4830 E00300 - N4830 E00345 - N4845 E00415 - N4830 E00430 TOP FL330 MOV S 10KT NC=



MetMap, La meteo Aeronautica in un colpo d'occhio ! - Copyright ORBIFLY Dicembre 2007 - Disclaimer

ORBIFLY MET'MAP TEAM :

Programmazione e sviluppo : Alexandra Zaïnal
Concezione e sviluppo : Baudouin d'Aumeries
Co-Programmazione e sviluppo : Marc-Olivier Méhu
Supporto tecnico e logistico : Manuel Goepfert
Aiuto per la traduzione : Arnaldo La Scala

Contatto : metmap@orbifly.com




FONTI E CREDITI :

   NOAA